createdAt,value
2022-08-17T00:00:51.642Z,22.98
2022-08-17T00:01:51.776Z,22.95
2022-08-17T00:02:45.106Z,22.90
2022-08-17T00:03:45.098Z,22.85
2022-08-17T00:04:50.353Z,22.82
2022-08-17T00:05:45.123Z,22.79
2022-08-17T00:06:45.129Z,22.77
2022-08-17T00:07:45.050Z,22.75
2022-08-17T00:08:45.041Z,22.70
2022-08-17T00:09:45.061Z,22.70
2022-08-17T00:10:45.024Z,22.68
2022-08-17T00:12:34.866Z,22.68
2022-08-17T00:12:56.464Z,22.65
2022-08-17T00:13:44.991Z,22.67
2022-08-17T00:14:44.996Z,22.65
2022-08-17T00:15:44.961Z,22.64
2022-08-17T00:16:56.217Z,22.62
2022-08-17T00:17:44.938Z,22.61
2022-08-17T00:19:02.139Z,22.61
2022-08-17T00:19:44.960Z,22.61
2022-08-17T00:20:44.906Z,22.61
2022-08-17T00:22:30.734Z,22.61
2022-08-17T00:22:44.880Z,22.62
2022-08-17T00:23:49.287Z,22.64
2022-08-17T00:24:44.936Z,22.64
2022-08-17T00:25:44.876Z,22.64
2022-08-17T00:26:45.473Z,22.64
2022-08-17T00:27:44.830Z,22.64
2022-08-17T00:28:45.433Z,22.67
2022-08-17T00:29:44.812Z,22.65
2022-08-17T00:30:52.821Z,22.67
2022-08-17T00:31:44.818Z,22.67
2022-08-17T00:33:11.855Z,22.67
2022-08-17T00:33:44.768Z,22.65
2022-08-17T00:34:44.759Z,22.67
2022-08-17T00:35:44.762Z,22.67
2022-08-17T00:36:44.790Z,22.68
2022-08-17T00:37:44.820Z,22.68
2022-08-17T00:38:44.700Z,22.68
2022-08-17T00:39:44.773Z,22.70
2022-08-17T00:40:45.145Z,22.72
2022-08-17T00:41:44.694Z,22.70
2022-08-17T00:42:44.680Z,22.72
2022-08-17T00:43:44.675Z,22.70
2022-08-17T00:44:44.648Z,22.72
2022-08-17T00:45:44.636Z,22.72
2022-08-17T00:46:44.641Z,22.72
2022-08-17T00:47:44.608Z,22.70
2022-08-17T00:48:44.608Z,22.70
2022-08-17T00:49:44.594Z,22.70
2022-08-17T00:50:44.566Z,22.68
2022-08-17T00:51:44.560Z,22.68
2022-08-17T00:52:44.553Z,22.68
2022-08-17T00:53:44.548Z,22.67
2022-08-17T00:54:44.567Z,22.67
2022-08-17T00:55:44.529Z,22.65
2022-08-17T00:56:45.444Z,22.64
2022-08-17T00:57:44.519Z,22.64
2022-08-17T00:58:44.486Z,22.62
2022-08-17T00:59:44.478Z,22.58
2022-08-17T01:00:44.527Z,22.58
2022-08-17T01:01:44.527Z,22.54
2022-08-17T01:02:44.526Z,22.51
2022-08-17T01:03:44.439Z,22.52
2022-08-17T01:04:44.426Z,22.52
2022-08-17T01:05:44.413Z,22.52
2022-08-17T01:06:44.407Z,22.51
2022-08-17T01:07:44.399Z,22.51
2022-08-17T01:08:44.377Z,22.49
2022-08-17T01:09:44.367Z,22.49
2022-08-17T01:10:58.588Z,22.47
2022-08-17T01:11:44.361Z,22.47
2022-08-17T01:12:44.324Z,22.46
2022-08-17T01:13:44.330Z,22.45
2022-08-17T01:14:44.308Z,22.46
2022-08-17T01:15:46.175Z,22.46
2022-08-17T01:16:44.288Z,22.45
2022-08-17T01:17:44.292Z,22.46
2022-08-17T01:18:44.266Z,22.45
2022-08-17T01:19:44.260Z,22.45
2022-08-17T01:20:48.524Z,22.43
2022-08-17T01:21:44.255Z,22.42
2022-08-17T01:22:44.225Z,22.42
2022-08-17T01:23:44.219Z,22.42
2022-08-17T01:24:44.416Z,22.39
2022-08-17T01:25:44.194Z,22.39
2022-08-17T01:26:44.184Z,22.37
2022-08-17T01:27:44.194Z,22.36
2022-08-17T01:28:54.181Z,22.35
2022-08-17T01:29:44.153Z,22.36
2022-08-17T01:30:57.047Z,22.35
2022-08-17T01:31:44.182Z,22.35
2022-08-17T01:32:44.115Z,22.31
2022-08-17T01:33:44.134Z,22.30
2022-08-17T01:34:50.098Z,22.30
2022-08-17T01:35:44.083Z,22.28
2022-08-17T01:36:44.077Z,22.30
2022-08-17T01:37:44.049Z,22.28
2022-08-17T01:38:44.054Z,22.28
2022-08-17T01:39:44.342Z,22.27
2022-08-17T01:40:44.087Z,22.28
2022-08-17T01:41:44.893Z,22.28
2022-08-17T01:42:44.023Z,22.28
2022-08-17T01:43:44.044Z,22.28
2022-08-17T01:44:43.989Z,22.27
2022-08-17T01:45:43.964Z,22.28
2022-08-17T01:46:43.967Z,22.27
2022-08-17T01:47:43.951Z,22.25
2022-08-17T01:48:43.969Z,22.25
2022-08-17T01:49:43.936Z,22.24
2022-08-17T01:50:43.918Z,22.21
2022-08-17T01:51:43.907Z,22.20
2022-08-17T01:52:43.918Z,22.20
2022-08-17T01:53:43.883Z,22.20
2022-08-17T01:54:43.884Z,22.18
2022-08-17T01:55:43.859Z,22.18
2022-08-17T01:56:43.865Z,22.20
2022-08-17T01:57:43.863Z,22.17
2022-08-17T01:58:43.845Z,22.18
2022-08-17T01:59:43.847Z,22.17
2022-08-17T02:00:51.731Z,22.15
2022-08-17T02:01:43.886Z,22.15
2022-08-17T02:02:43.792Z,22.14
2022-08-17T02:03:53.492Z,22.14
2022-08-17T02:04:43.921Z,22.12
2022-08-17T02:05:43.761Z,22.12
2022-08-17T02:06:52.675Z,22.12
2022-08-17T02:08:00.456Z,22.10
2022-08-17T02:09:03.052Z,22.10
2022-08-17T02:09:43.934Z,22.10
2022-08-17T02:10:46.642Z,22.10
2022-08-17T02:11:43.701Z,22.10
2022-08-17T02:12:43.685Z,22.10
2022-08-17T02:13:43.675Z,22.12
2022-08-17T02:14:43.673Z,22.10
2022-08-17T02:15:43.669Z,22.10
2022-08-17T02:16:43.651Z,22.09
2022-08-17T02:17:43.625Z,22.10
2022-08-17T02:18:43.621Z,22.09
2022-08-17T02:19:43.621Z,22.09
2022-08-17T02:20:43.615Z,22.06
2022-08-17T02:21:43.596Z,22.09
2022-08-17T02:22:43.585Z,22.07
2022-08-17T02:23:43.567Z,22.06
2022-08-17T02:25:00.131Z,22.05
2022-08-17T02:25:43.552Z,22.06
2022-08-17T02:26:43.538Z,22.03
2022-08-17T02:27:43.513Z,22.00
2022-08-17T02:28:43.514Z,21.99
2022-08-17T02:29:43.517Z,21.98
2022-08-17T02:30:59.513Z,21.94
2022-08-17T02:31:43.492Z,21.91
2022-08-17T02:32:43.484Z,21.88
2022-08-17T02:33:43.824Z,21.84
2022-08-17T02:34:43.443Z,21.82
2022-08-17T02:35:43.424Z,21.82
2022-08-17T02:36:43.425Z,21.80
2022-08-17T02:37:43.417Z,21.80
2022-08-17T02:38:43.415Z,21.82
2022-08-17T02:39:43.423Z,21.82
2022-08-17T02:40:43.382Z,21.82
2022-08-17T02:41:43.361Z,21.82
2022-08-17T02:42:43.387Z,21.82
2022-08-17T02:43:43.343Z,21.82
2022-08-17T02:44:43.332Z,21.82
2022-08-17T02:45:43.314Z,21.83
2022-08-17T02:46:43.312Z,21.83
2022-08-17T02:47:43.300Z,21.82
2022-08-17T02:48:43.292Z,21.83
2022-08-17T02:49:47.543Z,21.82
2022-08-17T02:50:43.277Z,21.83
2022-08-17T02:51:43.260Z,21.82
2022-08-17T02:52:44.178Z,21.84
2022-08-17T02:53:43.226Z,21.83
2022-08-17T02:54:43.213Z,21.82
2022-08-17T02:55:43.212Z,21.83
2022-08-17T02:56:43.218Z,21.82
2022-08-17T02:57:43.274Z,21.80
2022-08-17T02:58:43.202Z,21.79
2022-08-17T02:59:48.315Z,21.79
2022-08-17T03:00:43.155Z,21.80
2022-08-17T03:01:43.233Z,21.79
2022-08-17T03:02:43.170Z,21.79
2022-08-17T03:03:43.128Z,21.79
2022-08-17T03:04:43.111Z,21.79
2022-08-17T03:05:43.103Z,21.79
2022-08-17T03:06:43.187Z,21.79
2022-08-17T03:07:43.078Z,21.79
2022-08-17T03:08:43.085Z,21.79
2022-08-17T03:09:43.068Z,21.79
2022-08-17T03:10:43.048Z,21.79
2022-08-17T03:11:43.043Z,21.77
2022-08-17T03:12:43.077Z,21.77
2022-08-17T03:13:43.020Z,21.77
2022-08-17T03:14:43.018Z,21.77
2022-08-17T03:15:44.422Z,21.77
2022-08-17T03:16:43.135Z,21.75
2022-08-17T03:17:42.962Z,21.75
2022-08-17T03:18:42.994Z,21.74
2022-08-17T03:19:43.322Z,21.75
2022-08-17T03:20:42.941Z,21.72
2022-08-17T03:21:42.931Z,21.72
2022-08-17T03:22:42.938Z,21.72
2022-08-17T03:23:42.924Z,21.72
2022-08-17T03:24:42.907Z,21.72
2022-08-17T03:25:43.456Z,21.72
2022-08-17T03:26:42.941Z,21.72
2022-08-17T03:27:42.869Z,21.71
2022-08-17T03:28:42.859Z,21.72
2022-08-17T03:29:42.836Z,21.71
2022-08-17T03:30:42.843Z,21.69
2022-08-17T03:31:42.838Z,21.71
2022-08-17T03:32:42.882Z,21.69
2022-08-17T03:33:42.790Z,21.69
2022-08-17T03:34:42.791Z,21.68
2022-08-17T03:35:42.783Z,21.68
2022-08-17T03:36:42.774Z,21.69
2022-08-17T03:37:42.823Z,21.67
2022-08-17T03:38:42.778Z,21.67
2022-08-17T03:39:42.758Z,21.64
2022-08-17T03:40:56.624Z,21.64
2022-08-17T03:41:42.734Z,21.62
2022-08-17T03:42:42.746Z,21.59
2022-08-17T03:43:42.686Z,21.59
2022-08-17T03:44:42.679Z,21.58
2022-08-17T03:45:42.703Z,21.58
2022-08-17T03:46:42.670Z,21.58
2022-08-17T03:47:42.637Z,21.56
2022-08-17T03:48:42.784Z,21.54
2022-08-17T03:49:42.606Z,21.54
2022-08-17T03:50:42.598Z,21.56
2022-08-17T03:51:42.605Z,21.54
2022-08-17T03:52:43.506Z,21.58
2022-08-17T03:53:42.580Z,21.56
2022-08-17T03:54:42.590Z,21.56
2022-08-17T03:55:42.548Z,21.56
2022-08-17T03:56:42.549Z,21.56
2022-08-17T03:57:42.539Z,21.56
2022-08-17T03:58:42.822Z,21.58
2022-08-17T03:59:42.516Z,21.56
2022-08-17T04:00:42.504Z,21.56
2022-08-17T04:01:42.580Z,21.58
2022-08-17T04:02:42.477Z,21.59
2022-08-17T04:03:42.460Z,21.56
2022-08-17T04:04:42.449Z,21.58
2022-08-17T04:05:42.442Z,21.54
2022-08-17T04:06:42.442Z,21.56
2022-08-17T04:07:42.426Z,21.58
2022-08-17T04:08:42.414Z,21.58
2022-08-17T04:09:42.419Z,21.58
2022-08-17T04:10:45.120Z,21.58
2022-08-17T04:11:42.369Z,21.59
2022-08-17T04:12:42.381Z,21.59
2022-08-17T04:13:42.351Z,21.58
2022-08-17T04:14:53.504Z,21.59
2022-08-17T04:15:42.345Z,21.59
2022-08-17T04:16:42.327Z,21.59
2022-08-17T04:17:42.335Z,21.64
2022-08-17T04:18:42.328Z,21.62
2022-08-17T04:19:42.458Z,21.64
2022-08-17T04:20:42.270Z,21.62
2022-08-17T04:21:42.271Z,21.65
2022-08-17T04:22:42.257Z,21.67
2022-08-17T04:23:42.246Z,21.65
2022-08-17T04:24:42.256Z,21.67
2022-08-17T04:25:42.241Z,21.68
2022-08-17T04:26:53.001Z,21.67
2022-08-17T04:27:42.203Z,21.68
2022-08-17T04:28:42.207Z,21.68
2022-08-17T04:29:54.137Z,21.69
2022-08-17T04:30:42.179Z,21.68
2022-08-17T04:31:42.165Z,21.69
2022-08-17T04:33:04.290Z,21.69
2022-08-17T04:33:42.136Z,21.71
2022-08-17T04:34:42.119Z,21.71
2022-08-17T04:35:42.119Z,21.71
2022-08-17T04:36:42.121Z,21.71
2022-08-17T04:37:42.123Z,21.71
2022-08-17T04:38:42.075Z,21.71
2022-08-17T04:39:42.104Z,21.72
2022-08-17T04:40:42.073Z,21.71
2022-08-17T04:41:43.328Z,21.75
2022-08-17T04:42:42.035Z,21.72
2022-08-17T04:43:42.027Z,21.74
2022-08-17T04:44:42.032Z,21.74
2022-08-17T04:45:55.342Z,21.75
2022-08-17T04:46:42.033Z,21.77
2022-08-17T04:47:41.994Z,21.77
2022-08-17T04:48:41.969Z,21.77
2022-08-17T04:49:41.968Z,21.79
2022-08-17T04:50:41.959Z,21.79
2022-08-17T04:51:47.923Z,21.80
2022-08-17T04:52:43.377Z,21.82
2022-08-17T04:53:41.913Z,21.83
2022-08-17T04:54:41.915Z,21.84
2022-08-17T04:55:41.884Z,21.84
2022-08-17T04:56:41.884Z,21.88
2022-08-17T04:57:45.081Z,21.88
2022-08-17T04:58:41.864Z,21.90
2022-08-17T04:59:41.850Z,21.91
2022-08-17T05:00:41.839Z,21.91
2022-08-17T05:01:41.868Z,21.94
2022-08-17T05:02:49.634Z,21.96
2022-08-17T05:03:41.843Z,21.98
2022-08-17T05:04:41.824Z,21.98
2022-08-17T05:05:41.788Z,21.99
2022-08-17T05:06:41.771Z,22.00
2022-08-17T05:07:41.769Z,22.03
2022-08-17T05:08:41.753Z,22.03
2022-08-17T05:09:41.731Z,22.05
2022-08-17T05:10:45.305Z,22.06
2022-08-17T05:11:44.997Z,22.07
2022-08-17T05:12:41.705Z,22.09
2022-08-17T05:13:41.721Z,22.10
2022-08-17T05:14:41.694Z,22.14
2022-08-17T05:15:44.744Z,22.15
2022-08-17T05:16:41.682Z,22.18
2022-08-17T05:17:41.700Z,22.18
2022-08-17T05:18:41.653Z,22.21
2022-08-17T05:19:41.645Z,22.24
2022-08-17T05:20:41.628Z,22.24
2022-08-17T05:21:41.612Z,22.25
2022-08-17T05:22:41.594Z,22.28
2022-08-17T05:23:42.713Z,22.33
2022-08-17T05:24:43.731Z,22.35
2022-08-17T05:25:41.635Z,22.36
2022-08-17T05:26:41.582Z,22.39
2022-08-17T05:27:41.550Z,22.40
2022-08-17T05:28:41.539Z,22.43
2022-08-17T05:29:41.561Z,22.43
2022-08-17T05:30:41.504Z,22.47
2022-08-17T05:31:41.510Z,22.51
2022-08-17T05:32:41.521Z,22.51
2022-08-17T05:33:46.146Z,22.54
2022-08-17T05:34:41.469Z,22.55
2022-08-17T05:35:41.478Z,22.57
2022-08-17T05:36:43.484Z,22.60
2022-08-17T05:37:41.454Z,22.61
2022-08-17T05:38:41.416Z,22.64
2022-08-17T05:39:41.470Z,22.65
2022-08-17T05:40:41.434Z,22.70
2022-08-17T05:41:41.400Z,22.72
2022-08-17T05:42:41.413Z,22.73
2022-08-17T05:43:41.373Z,22.79
2022-08-17T05:44:41.354Z,22.82
2022-08-17T05:45:54.896Z,22.83
2022-08-17T05:46:41.369Z,22.86
2022-08-17T05:47:41.326Z,22.90
2022-08-17T05:48:41.316Z,22.92
2022-08-17T05:49:41.308Z,22.94
2022-08-17T05:50:41.293Z,22.98
2022-08-17T05:51:41.286Z,23.00
2022-08-17T05:52:41.286Z,23.01
2022-08-17T05:53:41.273Z,23.04
2022-08-17T05:54:41.250Z,23.07
2022-08-17T05:55:41.278Z,23.10
2022-08-17T05:56:41.231Z,23.13
2022-08-17T05:57:43.604Z,23.16
2022-08-17T05:58:41.205Z,23.17
2022-08-17T05:59:41.272Z,23.20
2022-08-17T06:00:42.312Z,23.23
2022-08-17T06:01:41.286Z,23.23
2022-08-17T06:02:45.564Z,23.27
2022-08-17T06:03:41.192Z,23.28
2022-08-17T06:04:41.129Z,23.32
2022-08-17T06:05:41.201Z,23.33
2022-08-17T06:06:41.132Z,23.35
2022-08-17T06:07:41.126Z,23.38
2022-08-17T06:08:41.112Z,23.40
2022-08-17T06:09:41.084Z,23.40
2022-08-17T06:10:41.106Z,23.46
2022-08-17T06:11:41.103Z,23.48
2022-08-17T06:12:41.049Z,23.51
2022-08-17T06:13:41.050Z,23.54
2022-08-17T06:14:41.083Z,23.57
2022-08-17T06:15:41.043Z,23.60
2022-08-17T06:16:41.012Z,23.63
2022-08-17T06:17:40.997Z,23.66
2022-08-17T06:18:41.098Z,23.69
2022-08-17T06:19:41.232Z,23.72
2022-08-17T06:20:40.968Z,23.75
2022-08-17T06:21:40.995Z,23.78
2022-08-17T06:22:40.960Z,23.84
2022-08-17T06:23:40.928Z,23.88
2022-08-17T06:24:40.948Z,23.97
2022-08-17T06:25:41.529Z,24.02
2022-08-17T06:26:43.375Z,24.08
2022-08-17T06:27:40.908Z,24.12
2022-08-17T06:28:40.872Z,24.16
2022-08-17T06:29:41.045Z,24.18
2022-08-17T06:31:00.241Z,24.22
2022-08-17T06:31:40.854Z,24.25
2022-08-17T06:32:40.956Z,24.30
2022-08-17T06:33:41.594Z,24.32
2022-08-17T06:34:40.837Z,24.34
2022-08-17T06:35:40.823Z,24.39
2022-08-17T06:36:40.794Z,24.40
2022-08-17T06:37:40.785Z,24.42
2022-08-17T06:38:40.766Z,24.45
2022-08-17T06:39:40.930Z,24.47
2022-08-17T06:40:40.765Z,24.50
2022-08-17T06:41:40.785Z,24.55
2022-08-17T06:42:54.790Z,24.57
2022-08-17T06:43:42.379Z,24.60
2022-08-17T06:44:43.525Z,24.61
2022-08-17T06:45:40.733Z,24.62
2022-08-17T06:46:40.710Z,24.67
2022-08-17T06:47:40.690Z,24.69
2022-08-17T06:48:40.668Z,24.71
2022-08-17T06:49:40.695Z,24.77
2022-08-17T06:50:40.698Z,24.80
2022-08-17T06:51:40.648Z,24.81
2022-08-17T06:52:55.706Z,24.85
2022-08-17T06:53:40.615Z,24.90
2022-08-17T06:54:40.596Z,24.95
2022-08-17T06:55:40.637Z,24.98
2022-08-17T06:56:53.233Z,25.03
2022-08-17T06:57:40.602Z,25.06
2022-08-17T06:58:40.572Z,25.10
2022-08-17T06:59:54.955Z,25.14
2022-08-17T07:00:40.598Z,25.18
2022-08-17T07:01:40.647Z,25.21
2022-08-17T07:02:52.076Z,25.27
2022-08-17T07:03:40.534Z,25.30
2022-08-17T07:04:41.468Z,25.33
2022-08-17T07:05:40.500Z,25.39
2022-08-17T07:06:40.468Z,25.42
2022-08-17T07:07:40.463Z,25.47
2022-08-17T07:08:40.481Z,25.51
2022-08-17T07:09:40.989Z,25.54
2022-08-17T07:10:40.450Z,25.58
2022-08-17T07:11:40.594Z,25.62
2022-08-17T07:12:40.978Z,25.67
2022-08-17T07:13:40.399Z,25.72
2022-08-17T07:14:40.388Z,25.75
2022-08-17T07:15:40.480Z,25.76
2022-08-17T07:16:40.395Z,25.82
2022-08-17T07:17:47.263Z,25.85
2022-08-17T07:18:40.359Z,25.87
2022-08-17T07:19:40.404Z,25.91
2022-08-17T07:20:40.320Z,25.92
2022-08-17T07:21:40.333Z,25.95
2022-08-17T07:22:53.520Z,25.99
2022-08-17T07:23:40.324Z,26.02
2022-08-17T07:24:40.274Z,26.09
2022-08-17T07:25:40.425Z,26.13
2022-08-17T07:26:40.242Z,26.20
2022-08-17T07:27:40.247Z,26.23
2022-08-17T07:28:40.227Z,26.26
2022-08-17T07:29:40.224Z,26.33
2022-08-17T07:30:45.695Z,26.39
2022-08-17T07:31:40.247Z,26.45
2022-08-17T07:32:40.184Z,26.48
2022-08-17T07:33:40.168Z,26.52
2022-08-17T07:34:40.291Z,26.54
2022-08-17T07:35:41.433Z,26.58
2022-08-17T07:36:40.135Z,26.62
2022-08-17T07:37:40.147Z,26.65
2022-08-17T07:38:40.122Z,26.69
2022-08-17T07:40:15.215Z,26.72
2022-08-17T07:40:40.184Z,26.73
2022-08-17T07:41:53.310Z,26.76
2022-08-17T07:42:44.910Z,26.77
2022-08-17T07:43:40.107Z,26.81
2022-08-17T07:44:40.047Z,26.81
2022-08-17T07:45:40.054Z,26.85
2022-08-17T07:46:40.041Z,26.88
2022-08-17T07:47:40.083Z,26.88
2022-08-17T07:48:40.009Z,26.91
2022-08-17T07:49:40.014Z,26.95
2022-08-17T07:50:39.985Z,26.99
2022-08-17T07:51:40.028Z,27.03
2022-08-17T07:52:51.932Z,27.04
2022-08-17T07:53:40.073Z,27.09
2022-08-17T07:54:39.949Z,27.12
2022-08-17T07:55:39.939Z,27.17
2022-08-17T07:56:39.919Z,27.19
2022-08-17T07:57:39.932Z,27.22
2022-08-17T07:58:39.906Z,27.25
2022-08-17T07:59:43.307Z,27.29
2022-08-17T08:00:39.911Z,27.32
2022-08-17T08:01:42.060Z,27.36
2022-08-17T08:02:40.578Z,27.37
2022-08-17T08:03:39.866Z,27.41
2022-08-17T08:05:50.390Z,27.44
2022-08-17T08:06:39.829Z,27.47
2022-08-17T08:07:39.831Z,27.51
2022-08-17T08:08:39.876Z,27.55
2022-08-17T08:09:39.817Z,27.59
2022-08-17T08:10:42.577Z,27.59
2022-08-17T08:11:44.111Z,27.62
2022-08-17T08:12:39.782Z,27.62
2022-08-17T08:13:39.739Z,27.66
2022-08-17T08:14:39.734Z,27.67
2022-08-17T08:15:39.752Z,27.72
2022-08-17T08:16:39.716Z,27.72
2022-08-17T08:17:39.710Z,27.75
2022-08-17T08:18:39.745Z,27.77
2022-08-17T08:19:39.737Z,27.78
2022-08-17T08:20:53.517Z,27.79
2022-08-17T08:21:39.669Z,27.82
2022-08-17T08:22:39.638Z,27.84
2022-08-17T08:23:39.638Z,27.84
2022-08-17T08:24:39.622Z,27.87
2022-08-17T08:25:39.685Z,27.90
2022-08-17T08:26:39.601Z,27.96
2022-08-17T08:27:39.590Z,28.02
2022-08-17T08:28:39.572Z,28.09
2022-08-17T08:29:39.610Z,28.14
2022-08-17T08:30:39.590Z,28.19
2022-08-17T08:31:42.353Z,28.22
2022-08-17T08:32:39.605Z,28.24
2022-08-17T08:33:39.532Z,28.29
2022-08-17T08:34:47.988Z,28.30
2022-08-17T08:35:39.525Z,28.33
2022-08-17T08:36:56.634Z,28.34
2022-08-17T08:37:42.940Z,28.37
2022-08-17T08:38:39.642Z,28.40
2022-08-17T08:39:39.540Z,28.41
2022-08-17T08:40:39.460Z,28.44
2022-08-17T08:41:39.447Z,28.49
2022-08-17T08:42:39.451Z,28.52
2022-08-17T08:43:39.443Z,28.55
2022-08-17T08:44:59.846Z,28.56
2022-08-17T08:45:39.453Z,28.59
2022-08-17T08:46:39.394Z,28.62
2022-08-17T08:47:39.385Z,28.61
2022-08-17T08:48:53.639Z,28.58
2022-08-17T08:50:02.716Z,28.56
2022-08-17T08:50:39.433Z,28.54
2022-08-17T08:51:39.333Z,28.51
2022-08-17T08:52:39.331Z,28.48
2022-08-17T08:53:39.326Z,28.44
2022-08-17T08:54:39.371Z,28.44
2022-08-17T08:55:39.352Z,28.41
2022-08-17T08:56:39.316Z,28.43
2022-08-17T08:57:39.274Z,28.43
2022-08-17T08:58:41.697Z,28.44
2022-08-17T08:59:42.144Z,28.44
2022-08-17T09:00:39.283Z,28.46
2022-08-17T09:01:40.221Z,28.43
2022-08-17T09:02:39.231Z,28.46
2022-08-17T09:03:52.383Z,28.41
2022-08-17T09:05:10.023Z,28.37
2022-08-17T09:05:39.206Z,28.33
2022-08-17T09:06:40.093Z,28.30
2022-08-17T09:07:39.181Z,28.29
2022-08-17T09:08:39.157Z,28.25
2022-08-17T09:09:39.151Z,28.22
2022-08-17T09:10:39.147Z,28.24
2022-08-17T09:12:02.062Z,28.22
2022-08-17T09:12:39.131Z,28.25
2022-08-17T09:13:39.113Z,28.25
2022-08-17T09:14:47.133Z,28.27
2022-08-17T09:15:39.127Z,28.29
2022-08-17T09:16:39.101Z,28.30
2022-08-17T09:17:39.621Z,28.33
2022-08-17T09:19:03.327Z,28.34
2022-08-17T09:19:39.128Z,28.36
2022-08-17T09:20:39.030Z,28.37
2022-08-17T09:21:39.069Z,28.39
2022-08-17T09:22:39.020Z,28.41
2022-08-17T09:23:39.019Z,28.46
2022-08-17T09:24:38.994Z,28.46
2022-08-17T09:25:38.987Z,28.49
2022-08-17T09:26:39.010Z,28.55
2022-08-17T09:27:38.976Z,28.62
2022-08-17T09:28:38.960Z,28.66
2022-08-17T09:29:38.996Z,28.70
2022-08-17T09:30:38.936Z,28.71
2022-08-17T09:31:48.150Z,28.70
2022-08-17T09:32:38.989Z,28.67
2022-08-17T09:33:38.889Z,28.64
2022-08-17T09:34:38.957Z,28.66
2022-08-17T09:35:38.866Z,28.73
2022-08-17T09:36:38.885Z,28.80
2022-08-17T09:37:38.844Z,28.80
2022-08-17T09:38:38.906Z,28.83
2022-08-17T09:39:38.887Z,28.81
2022-08-17T09:40:38.828Z,28.85
2022-08-17T09:41:38.817Z,28.88
2022-08-17T09:42:38.900Z,28.88
2022-08-17T09:43:38.809Z,28.86
2022-08-17T09:44:38.793Z,28.86
2022-08-17T09:45:38.756Z,28.89
2022-08-17T09:46:38.962Z,28.90
2022-08-17T09:47:39.433Z,28.90
2022-08-17T09:48:38.807Z,28.88
2022-08-17T09:49:38.758Z,28.89
2022-08-17T09:50:55.299Z,28.92
2022-08-17T09:51:38.701Z,28.96
2022-08-17T09:52:38.702Z,28.96
2022-08-17T09:53:38.687Z,29.06
2022-08-17T09:54:40.118Z,29.06
2022-08-17T09:55:38.744Z,29.06
2022-08-17T09:56:43.735Z,29.06
2022-08-17T09:57:38.644Z,29.08
2022-08-17T09:58:38.627Z,29.12
2022-08-17T09:59:38.889Z,29.12
2022-08-17T10:00:39.125Z,29.11
2022-08-17T10:01:38.693Z,29.14
2022-08-17T10:02:38.621Z,29.14
2022-08-17T10:03:38.576Z,29.15
2022-08-17T10:04:39.682Z,29.09
2022-08-17T10:05:38.550Z,29.09
2022-08-17T10:06:38.645Z,29.11
2022-08-17T10:07:38.547Z,29.14
2022-08-17T10:08:38.554Z,29.15
2022-08-17T10:09:38.517Z,29.21
2022-08-17T10:10:38.505Z,29.21
2022-08-17T10:11:38.490Z,29.24
2022-08-17T10:12:38.496Z,29.33
2022-08-17T10:13:38.514Z,29.39
2022-08-17T10:14:44.422Z,29.46
2022-08-17T10:15:38.487Z,29.53
2022-08-17T10:16:38.434Z,29.60
2022-08-17T10:17:38.429Z,29.65
2022-08-17T10:18:38.635Z,29.74
2022-08-17T10:19:38.419Z,29.80
2022-08-17T10:20:38.382Z,29.83
2022-08-17T10:21:38.364Z,29.89
2022-08-17T10:22:38.416Z,29.92
2022-08-17T10:23:38.455Z,29.94
2022-08-17T10:24:38.348Z,30.01
2022-08-17T10:25:54.060Z,30.05
2022-08-17T10:26:40.517Z,30.11
2022-08-17T10:27:38.331Z,30.16
2022-08-17T10:28:38.495Z,30.19
2022-08-17T10:29:49.200Z,30.20
2022-08-17T10:30:38.293Z,30.23
2022-08-17T10:31:38.265Z,30.24
2022-08-17T10:32:38.259Z,30.27
2022-08-17T10:33:38.296Z,30.29
2022-08-17T10:34:41.019Z,30.29
2022-08-17T10:35:39.117Z,30.31
2022-08-17T10:36:38.259Z,30.34
2022-08-17T10:37:38.252Z,30.37
2022-08-17T10:38:38.212Z,30.38
2022-08-17T10:39:38.268Z,30.43
2022-08-17T10:40:38.176Z,30.47
2022-08-17T10:41:40.433Z,30.51
2022-08-17T10:42:38.166Z,30.53
2022-08-17T10:43:38.179Z,30.55
2022-08-17T10:44:41.259Z,30.58
2022-08-17T10:45:38.141Z,30.58
2022-08-17T10:46:38.119Z,30.61
2022-08-17T10:47:52.847Z,30.61
2022-08-17T10:48:38.107Z,30.61
2022-08-17T10:49:38.223Z,30.61
2022-08-17T10:50:38.122Z,30.58
2022-08-17T10:51:38.109Z,30.61
2022-08-17T10:52:38.058Z,30.61
2022-08-17T10:53:38.037Z,30.67
2022-08-17T10:54:38.061Z,30.72
2022-08-17T10:55:38.123Z,30.77
2022-08-17T10:56:38.029Z,30.82
2022-08-17T10:57:38.033Z,30.86
2022-08-17T10:58:37.995Z,30.94
2022-08-17T10:59:37.982Z,30.99
2022-08-17T11:00:38.004Z,31.06
2022-08-17T11:01:38.091Z,31.10
2022-08-17T11:02:38.106Z,31.14
2022-08-17T11:03:37.987Z,31.20
2022-08-17T11:04:37.938Z,31.26
2022-08-17T11:05:41.468Z,31.32
2022-08-17T11:06:38.080Z,31.36
2022-08-17T11:07:37.896Z,31.41
2022-08-17T11:08:38.006Z,31.47
2022-08-17T11:09:37.885Z,31.50
2022-08-17T11:10:37.945Z,31.54
2022-08-17T11:11:38.671Z,31.58
2022-08-17T11:12:37.889Z,31.66
2022-08-17T11:13:37.821Z,31.70
2022-08-17T11:14:37.877Z,31.73
2022-08-17T11:15:37.820Z,31.76
2022-08-17T11:16:37.811Z,31.76
2022-08-17T11:17:37.793Z,31.80
2022-08-17T11:18:38.487Z,31.80
2022-08-17T11:19:37.764Z,31.81
2022-08-17T11:20:37.747Z,31.84
2022-08-17T11:21:37.735Z,31.85
2022-08-17T11:22:37.755Z,31.89
2022-08-17T11:23:37.739Z,31.92
2022-08-17T11:24:37.731Z,31.95
2022-08-17T11:25:37.712Z,31.95
2022-08-17T11:26:37.707Z,31.92
2022-08-17T11:27:37.703Z,31.93
2022-08-17T11:28:37.710Z,31.93
2022-08-17T11:29:37.717Z,32.00
2022-08-17T11:30:37.650Z,32.07
2022-08-17T11:31:38.487Z,32.06
2022-08-17T11:32:37.634Z,32.07
2022-08-17T11:33:38.298Z,32.07
2022-08-17T11:34:37.612Z,32.06
2022-08-17T11:35:37.619Z,32.07
2022-08-17T11:36:37.581Z,32.14
2022-08-17T11:37:37.584Z,32.21
2022-08-17T11:38:37.571Z,32.33
2022-08-17T11:39:37.629Z,32.50
2022-08-17T11:40:37.597Z,32.65
2022-08-17T11:41:37.533Z,32.85
2022-08-17T11:42:37.528Z,33.00
2022-08-17T11:43:42.661Z,33.12
2022-08-17T11:44:37.723Z,33.16
2022-08-17T11:45:37.533Z,33.19
2022-08-17T11:46:37.486Z,33.22
2022-08-17T11:47:37.476Z,33.29
2022-08-17T11:48:37.453Z,33.44
2022-08-17T11:49:37.447Z,33.63
2022-08-17T11:50:37.504Z,33.81
2022-08-17T11:51:37.437Z,34.03
2022-08-17T11:52:37.422Z,34.22
2022-08-17T11:53:38.191Z,34.32
2022-08-17T11:54:37.405Z,34.42
2022-08-17T11:55:41.734Z,34.50
2022-08-17T11:56:37.389Z,34.53
2022-08-17T11:57:37.632Z,34.50
2022-08-17T11:58:37.431Z,34.52
2022-08-17T11:59:37.366Z,34.72
2022-08-17T12:00:37.355Z,34.91
2022-08-17T12:01:37.380Z,35.07
2022-08-17T12:02:37.328Z,35.19
2022-08-17T12:03:37.337Z,35.33
2022-08-17T12:04:37.321Z,35.47
2022-08-17T12:05:37.287Z,35.60
2022-08-17T12:06:37.267Z,35.77
2022-08-17T12:07:37.282Z,35.94
2022-08-17T12:08:37.309Z,36.12
2022-08-17T12:09:37.251Z,36.31
2022-08-17T12:10:37.454Z,36.50
2022-08-17T12:11:55.661Z,36.66
2022-08-17T12:12:37.333Z,36.81
2022-08-17T12:13:39.496Z,36.98
2022-08-17T12:15:08.532Z,37.09
2022-08-17T12:15:37.201Z,36.88
2022-08-17T12:16:37.169Z,36.64
2022-08-17T12:17:40.467Z,36.53
2022-08-17T12:18:37.154Z,36.43
2022-08-17T12:19:37.202Z,36.43
2022-08-17T12:20:37.647Z,36.50
2022-08-17T12:21:37.148Z,36.65
2022-08-17T12:22:37.113Z,36.75
2022-08-17T12:23:37.116Z,36.91
2022-08-17T12:24:37.088Z,37.18
2022-08-17T12:25:37.097Z,37.25
2022-08-17T12:26:37.078Z,37.15
2022-08-17T12:27:47.666Z,37.00
2022-08-17T12:28:37.059Z,36.88
2022-08-17T12:29:38.427Z,36.66
2022-08-17T12:30:37.086Z,36.46
2022-08-17T12:31:37.051Z,36.23
2022-08-17T12:32:37.021Z,36.05
2022-08-17T12:33:37.019Z,35.84
2022-08-17T12:34:37.006Z,35.70
2022-08-17T12:35:36.984Z,35.58
2022-08-17T12:36:36.996Z,35.50
2022-08-17T12:37:36.968Z,35.55
2022-08-17T12:38:36.956Z,35.71
2022-08-17T12:39:36.986Z,35.66
2022-08-17T12:40:36.932Z,35.82
2022-08-17T12:41:37.026Z,35.96
2022-08-17T12:42:37.709Z,36.05
2022-08-17T12:43:36.910Z,36.17
2022-08-17T12:44:36.917Z,36.12
2022-08-17T12:45:36.892Z,35.99
2022-08-17T12:46:36.909Z,35.80
2022-08-17T12:47:36.888Z,35.68
2022-08-17T12:48:36.869Z,35.56
2022-08-17T12:49:36.847Z,35.50
2022-08-17T12:50:36.839Z,35.44
2022-08-17T12:51:36.819Z,35.44
2022-08-17T12:52:36.881Z,35.40
2022-08-17T12:53:36.819Z,35.40